Time;durP1;ratioP1;P1;durP2;ratioP2;P2;SDS_P1;SDS_P2;PMS_P1;PMS_P2;Temp;Humidity;BMP_temperature;BMP_pressure;BME280_temperature;BME280_humidity;BME280_pressure;Samples;Min_cycle;Max_cycle;Signal;HPM_P1;HPM_P2
2022/09/06 00:00:53;;;;;;;5.78;5.18;;;19.50;93.70;;;;;;5061304;28;20127;-67
2022/09/06 00:03:19;;;;;;;10.00;5.60;;;19.50;93.80;;;;;;5063137;28;20112;-68
2022/09/06 00:05:45;;;;;;;7.13;5.53;;;19.40;93.80;;;;;;5062929;28;20115;-67
2022/09/06 00:08:10;;;;;;;7.57;5.38;;;19.40;93.90;;;;;;5061079;28;20124;-67
2022/09/06 00:10:36;;;;;;;7.70;5.82;;;19.30;93.90;;;;;;5064710;28;20044;-67
2022/09/06 00:13:07;;;;;;;8.48;6.00;;;19.30;94.00;;;;;;5056564;28;20514;-68
2022/09/06 00:15:34;;;;;;;7.82;5.10;;;19.20;94.10;;;;;;5058672;28;20072;-67
2022/09/06 00:18:01;;;;;;;8.57;5.97;;;19.20;94.20;;;;;;5073666;28;20374;-68
2022/09/06 00:20:28;;;;;;;8.13;5.00;;;19.20;94.20;;;;;;5059431;28;20437;-67
2022/09/06 00:23:02;;;;;;;7.88;5.82;;;19.20;94.40;;;;;;5058665;28;20129;-68
2022/09/06 00:25:29;;;;;;;6.38;5.07;;;19.20;94.40;;;;;;5061690;28;20112;-68
2022/09/06 00:27:56;;;;;;;10.45;5.32;;;19.10;94.40;;;;;;5061177;28;20090;-67
2022/09/06 00:30:23;;;;;;;11.82;5.40;;;19.20;94.40;;;;;;5064542;28;20040;-67
2022/09/06 00:32:49;;;;;;;6.60;5.28;;;19.10;94.40;;;;;;5055945;28;20052;-67
2022/09/06 00:35:16;;;;;;;6.25;5.65;;;19.20;94.40;;;;;;5043361;28;20248;-67
2022/09/06 00:37:41;;;;;;;7.90;5.75;;;19.20;94.50;;;;;;5065942;28;20102;-67
2022/09/06 00:40:07;;;;;;;8.38;5.75;;;19.20;94.50;;;;;;5065004;28;20032;-67
2022/09/06 00:42:33;;;;;;;9.02;5.65;;;19.10;94.60;;;;;;5068066;28;20044;-68
2022/09/06 00:44:59;;;;;;;7.28;6.25;;;19.10;94.70;;;;;;5063490;28;20041;-67
2022/09/06 00:47:26;;;;;;;7.28;6.25;;;19.10;94.80;;;;;;5064043;28;20033;-67
2022/09/06 00:49:55;;;;;;;10.30;6.30;;;19.00;94.90;;;;;;5064594;28;20087;-67
2022/09/06 00:52:22;;;;;;;10.73;6.40;;;19.00;95.10;;;;;;5066725;28;20486;-67
2022/09/06 00:54:49;;;;;;;7.20;6.20;;;18.90;95.10;;;;;;5043421;28;20056;-68
2022/09/06 00:57:16;;;;;;;7.00;6.18;;;18.90;95.30;;;;;;5060190;28;20036;-67
2022/09/06 00:59:44;;;;;;;9.00;6.32;;;18.80;95.50;;;;;;5078604;28;20608;-68
2022/09/06 01:02:11;;;;;;;9.70;5.72;;;18.80;95.60;;;;;;5067038;28;20383;-68
2022/09/06 01:04:40;;;;;;;11.15;6.03;;;18.70;95.60;;;;;;5064719;28;20044;-67
2022/09/06 01:07:30;;;;;;;6.20;5.60;;;18.70;95.70;;;;;;5067479;28;20041;-67
2022/09/06 01:09:59;;;;;;;7.25;5.78;;;18.70;95.90;;;;;;5066497;28;20120;-68
2022/09/06 01:12:31;;;;;;;7.57;6.03;;;18.60;95.90;;;;;;5067571;28;20032;-67
2022/09/06 01:15:36;;;;;;;11.32;6.55;;;18.60;96.00;;;;;;5048648;28;20045;-67
2022/09/06 01:18:43;;;;;;;7.43;6.18;;;18.50;96.30;;;;;;5067092;28;20037;-67
2022/09/06 01:21:38;;;;;;;7.28;5.88;;;18.50;96.10;;;;;;5032183;28;20044;-67
2022/09/06 01:24:24;;;;;;;10.00;6.32;;;18.50;96.50;;;;;;5024767;28;20138;-66
2022/09/06 01:27:18;;;;;;;9.23;6.72;;;18.50;96.30;;;;;;5070941;28;20516;-67
2022/09/06 01:29:51;;;;;;;9.35;6.40;;;18.60;96.50;;;;;;5071444;28;20041;-68
2022/09/06 01:32:28;;;;;;;8.55;6.78;;;18.60;96.40;;;;;;5067941;28;20513;-67
2022/09/06 01:35:05;;;;;;;10.63;5.97;;;18.60;96.40;;;;;;5070031;28;20059;-67
2022/09/06 01:37:31;;;;;;;8.85;6.03;;;18.50;96.40;;;;;;5068990;28;20045;-67
2022/09/06 01:39:57;;;;;;;8.38;6.30;;;18.60;96.40;;;;;;5069768;28;20195;-67
2022/09/06 01:42:27;;;;;;;7.40;6.43;;;18.60;96.60;;;;;;5072126;28;20043;-66
2022/09/06 01:44:56;;;;;;;7.50;6.25;;;18.60;96.70;;;;;;5070147;28;20127;-67
2022/09/06 01:47:42;;;;;;;6.82;5.97;;;18.50;96.80;;;;;;5052166;28;20052;-67
2022/09/06 01:50:11;;;;;;;8.00;6.00;;;18.50;97.00;;;;;;5070677;28;20428;-67
2022/09/06 01:52:57;;;;;;;6.72;6.03;;;18.50;96.90;;;;;;5052813;28;20432;-67
2022/09/06 01:55:28;;;;;;;7.97;5.93;;;18.50;97.10;;;;;;5063143;28;20044;-68
2022/09/06 01:58:32;;;;;;;7.00;5.80;;;18.50;97.10;;;;;;5047707;28;20508;-68
2022/09/06 02:01:10;;;;;;;7.60;5.75;;;18.50;97.40;;;;;;5051627;28;20048;-67
2022/09/06 02:03:54;;;;;;;10.02;6.57;;;18.50;97.20;;;;;;5062307;28;20082;-67
2022/09/06 02:06:25;;;;;;;10.07;6.13;;;18.40;97.40;;;;;;5063240;28;20093;-67
2022/09/06 02:09:06;;;;;;;6.15;5.65;;;18.40;97.40;;;;;;5067220;28;20071;-66
2022/09/06 02:11:42;;;;;;;8.18;6.45;;;18.50;97.40;;;;;;5062582;28;20067;-67
2022/09/06 02:14:14;;;;;;;6.55;5.93;;;18.40;97.40;;;;;;5051754;28;20278;-67
2022/09/06 02:16:42;;;;;;;8.15;6.20;;;18.40;97.50;;;;;;5067556;28;20040;-67
2022/09/06 02:19:17;;;;;;;8.18;6.03;;;18.40;97.50;;;;;;5075953;28;20080;-67
2022/09/06 02:21:46;;;;;;;6.85;6.15;;;18.40;97.70;;;;;;5067622;28;20036;-68
2022/09/06 02:24:21;;;;;;;7.38;6.57;;;18.40;97.70;;;;;;5060039;28;20214;-67
2022/09/06 02:26:48;;;;;;;7.70;6.35;;;18.40;97.70;;;;;;5064410;28;20048;-67
2022/09/06 02:29:15;;;;;;;7.03;6.32;;;18.40;97.70;;;;;;5064070;28;20090;-68
2022/09/06 02:31:53;;;;;;;10.75;7.03;;;18.40;97.80;;;;;;5064370;28;20449;-67
2022/09/06 02:34:20;;;;;;;7.50;6.70;;;18.40;97.90;;;;;;5080563;28;20271;-67
2022/09/06 02:36:46;;;;;;;10.07;6.65;;;18.40;98.00;;;;;;5061637;28;20037;-67
2022/09/06 02:39:12;;;;;;;7.68;6.93;;;18.40;98.30;;;;;;5064441;28;20066;-66
2022/09/06 02:41:41;;;;;;;9.48;7.45;;;18.40;98.20;;;;;;5065976;28;20072;-66
2022/09/06 02:44:07;;;;;;;10.10;7.43;;;18.40;98.20;;;;;;5064780;28;20397;-67
2022/09/06 02:46:32;;;;;;;10.18;6.80;;;18.40;98.20;;;;;;5064065;28;20037;-67
2022/09/06 02:48:58;;;;;;;7.60;6.90;;;18.40;98.20;;;;;;5047329;28;20047;-67
2022/09/06 02:51:24;;;;;;;10.95;6.63;;;18.40;98.10;;;;;;5047325;28;20075;-67
2022/09/06 02:53:50;;;;;;;7.38;6.55;;;18.40;98.20;;;;;;5062471;28;20036;-67
2022/09/06 02:56:15;;;;;;;9.20;7.32;;;18.40;98.20;;;;;;5064422;28;20082;-67
2022/09/06 02:58:41;;;;;;;9.35;7.50;;;18.40;98.30;;;;;;5060047;28;20051;-67
2022/09/06 03:01:07;;;;;;;8.50;7.65;;;18.30;98.40;;;;;;5064072;28;20028;-67
2022/09/06 03:03:33;;;;;;;9.13;7.20;;;18.30;98.60;;;;;;5062508;28;20029;-67
2022/09/06 03:05:59;;;;;;;9.85;7.68;;;18.30;98.70;;;;;;5065297;28;20142;-67
2022/09/06 03:08:25;;;;;;;8.55;7.65;;;18.30;98.70;;;;;;5063560;28;20151;-67
2022/09/06 03:10:54;;;;;;;8.95;7.05;;;18.30;98.80;;;;;;5042228;28;20036;-68
2022/09/06 03:13:22;;;;;;;9.02;7.43;;;18.30;98.80;;;;;;5062799;28;20060;-67
2022/09/06 03:15:56;;;;;;;9.38;7.50;;;18.20;98.80;;;;;;5058905;28;20045;-67
2022/09/06 03:18:26;;;;;;;9.85;8.05;;;18.20;99.00;;;;;;5059135;28;20029;-67
2022/09/06 03:20:53;;;;;;;9.00;8.20;;;18.20;99.00;;;;;;5044611;28;20093;-67
2022/09/06 03:23:22;;;;;;;10.32;7.93;;;18.20;99.10;;;;;;5047542;28;20048;-67
2022/09/06 03:25:48;;;;;;;12.43;8.95;;;18.10;99.20;;;;;;5046909;28;20484;-67
2022/09/06 03:28:15;;;;;;;10.88;8.65;;;18.10;99.20;;;;;;5066458;28;20133;-66
2022/09/06 03:30:43;;;;;;;9.02;8.13;;;18.10;99.20;;;;;;5065354;28;20430;-67
2022/09/06 03:33:09;;;;;;;10.25;8.25;;;18.10;99.40;;;;;;5064010;28;20048;-68
2022/09/06 03:35:35;;;;;;;8.88;8.07;;;18.00;99.40;;;;;;5043894;28;20037;-68
2022/09/06 03:38:02;;;;;;;8.70;7.90;;;18.00;99.60;;;;;;5063488;28;20098;-67
2022/09/06 03:40:28;;;;;;;12.60;8.35;;;18.00;99.60;;;;;;5046815;28;20115;-67
2022/09/06 03:42:55;;;;;;;9.52;8.63;;;17.90;99.70;;;;;;5046030;28;20436;-66
2022/09/06 03:45:21;;;;;;;9.80;8.80;;;17.90;99.90;;;;;;5048421;28;20044;-67
2022/09/06 03:47:46;;;;;;;11.75;9.52;;;17.90;99.90;;;;;;5073323;28;20051;-67
2022/09/06 03:50:12;;;;;;;11.75;9.68;;;17.90;99.90;;;;;;5045875;28;20093;-67
2022/09/06 03:52:38;;;;;;;13.27;9.77;;;17.80;99.90;;;;;;5044502;28;20044;-67
2022/09/06 03:55:06;;;;;;;13.60;10.05;;;17.80;99.90;;;;;;5063067;28;20041;-67
2022/09/06 03:57:31;;;;;;;11.90;10.20;;;17.80;99.90;;;;;;5063643;28;20044;-67
2022/09/06 03:59:57;;;;;;;12.43;9.80;;;17.70;99.90;;;;;;5047031;28;20033;-67
2022/09/06 04:02:23;;;;;;;10.35;9.32;;;17.70;99.90;;;;;;5046786;28;20067;-68
2022/09/06 04:04:49;;;;;;;16.63;10.27;;;17.70;99.90;;;;;;5063980;28;20136;-67
2022/09/06 04:07:14;;;;;;;12.93;9.73;;;17.60;99.90;;;;;;5062241;28;20127;-67
2022/09/06 04:09:40;;;;;;;10.70;9.57;;;17.60;99.90;;;;;;5061243;28;20041;-66
2022/09/06 04:12:06;;;;;;;11.15;9.48;;;17.60;99.90;;;;;;5064218;28;20040;-67
2022/09/06 04:14:32;;;;;;;11.05;9.88;;;17.60;99.90;;;;;;5030115;28;20041;-68
2022/09/06 04:16:57;;;;;;;12.85;8.85;;;17.60;99.90;;;;;;5065021;28;20460;-67
2022/09/06 04:19:23;;;;;;;11.82;9.32;;;17.60;99.90;;;;;;5063057;28;20566;-67
2022/09/06 04:21:49;;;;;;;13.35;9.18;;;17.60;99.90;;;;;;5058698;28;20033;-66
2022/09/06 04:24:14;;;;;;;9.82;8.82;;;17.60;99.90;;;;;;5060262;28;21350;-66
2022/09/06 04:26:40;;;;;;;10.95;8.77;;;17.60;99.90;;;;;;5046723;28;20048;-66
2022/09/06 04:29:06;;;;;;;11.75;9.05;;;17.60;99.90;;;;;;5054261;28;20045;-67
2022/09/06 04:31:31;;;;;;;12.73;9.05;;;17.60;99.90;;;;;;5065050;28;20497;-66
2022/09/06 04:33:57;;;;;;;9.40;8.00;;;17.60;99.90;;;;;;5060981;28;20083;-66
2022/09/06 04:36:23;;;;;;;15.48;8.40;;;17.60;99.90;;;;;;5071580;28;20041;-66
2022/09/06 04:38:48;;;;;;;11.10;8.70;;;17.70;99.90;;;;;;5073212;28;20584;-66
2022/09/06 04:41:17;;;;;;;16.65;9.75;;;17.70;99.90;;;;;;5075433;28;20028;-66
2022/09/06 04:43:43;;;;;;;15.48;10.00;;;17.60;99.90;;;;;;5062400;28;20051;-66
2022/09/06 04:46:20;;;;;;;13.07;10.00;;;17.60;99.90;;;;;;5060190;28;20479;-66
2022/09/06 04:48:49;;;;;;;15.45;10.68;;;17.60;99.90;;;;;;5061287;28;20890;-66
2022/09/06 04:51:16;;;;;;;11.75;10.02;;;17.60;99.90;;;;;;5063478;28;20044;-67
2022/09/06 04:53:41;;;;;;;14.38;10.13;;;17.60;99.90;;;;;;5062429;28;20028;-67
2022/09/06 04:56:12;;;;;;;13.32;11.13;;;17.60;99.90;;;;;;5067062;28;20052;-67
2022/09/06 04:58:38;;;;;;;13.68;10.63;;;17.60;99.90;;;;;;5060681;28;20526;-67
2022/09/06 05:01:04;;;;;;;12.27;11.00;;;17.60;99.90;;;;;;5045174;28;20041;-67
2022/09/06 05:03:29;;;;;;;12.82;10.25;;;17.50;99.90;;;;;;5059303;28;20457;-67
2022/09/06 05:06:07;;;;;;;12.90;10.70;;;17.50;99.90;;;;;;5045825;28;20642;-66
2022/09/06 05:08:36;;;;;;;11.05;9.95;;;17.50;99.90;;;;;;5065417;28;20073;-67
2022/09/06 05:11:01;;;;;;;12.70;10.45;;;17.50;99.90;;;;;;5044154;28;20041;-67
2022/09/06 05:13:27;;;;;;;13.75;9.95;;;17.50;99.90;;;;;;5061484;28;20044;-68
2022/09/06 05:15:54;;;;;;;12.93;10.45;;;17.50;99.90;;;;;;5060817;28;20045;-67
2022/09/06 05:18:19;;;;;;;15.50;11.63;;;17.60;99.90;;;;;;5061330;28;20037;-67
2022/09/06 05:20:51;;;;;;;13.50;10.98;;;17.60;99.90;;;;;;5062827;28;20043;-67
2022/09/06 05:23:17;;;;;;;13.65;11.23;;;17.60;99.90;;;;;;5066667;28;20052;-67
2022/09/06 05:25:43;;;;;;;11.25;9.82;;;17.50;99.90;;;;;;5062549;28;20189;-66
2022/09/06 05:28:08;;;;;;;17.27;11.35;;;17.50;99.90;;;;;;5067247;28;20097;-67
2022/09/06 05:30:34;;;;;;;13.10;10.85;;;17.50;99.90;;;;;;5063696;28;20040;-67
2022/09/06 05:33:00;;;;;;;12.32;10.60;;;17.60;99.90;;;;;;5049461;28;20051;-67
2022/09/06 05:35:25;;;;;;;12.60;11.30;;;17.60;99.90;;;;;;5065907;28;20509;-67
2022/09/06 05:37:51;;;;;;;13.55;10.35;;;17.60;99.90;;;;;;5065901;28;20036;-67
2022/09/06 05:40:17;;;;;;;13.43;10.35;;;17.60;99.90;;;;;;5047942;28;20737;-67
2022/09/06 05:42:42;;;;;;;13.48;11.10;;;17.60;99.90;;;;;;5047353;28;20032;-66
2022/09/06 05:45:08;;;;;;;12.48;10.82;;;17.50;99.90;;;;;;5063175;28;20044;-68
2022/09/06 05:47:34;;;;;;;15.25;10.95;;;17.60;99.90;;;;;;5063711;28;20056;-69
2022/09/06 05:50:01;;;;;;;15.00;10.98;;;17.60;99.90;;;;;;5069153;28;20043;-69
2022/09/06 05:52:27;;;;;;;15.82;11.68;;;17.60;99.90;;;;;;5069392;28;20059;-69
2022/09/06 05:54:53;;;;;;;12.73;11.43;;;17.50;99.90;;;;;;5065935;28;20044;-68
2022/09/06 05:57:19;;;;;;;16.65;12.93;;;17.50;99.90;;;;;;5032328;28;20029;-69
2022/09/06 05:59:44;;;;;;;17.13;12.32;;;17.50;99.90;;;;;;5061791;28;20045;-69
2022/09/06 06:02:10;;;;;;;12.55;11.25;;;17.50;99.90;;;;;;5063474;28;20067;-69
2022/09/06 06:04:36;;;;;;;16.88;13.32;;;17.40;99.90;;;;;;5049777;28;20138;-68
2022/09/06 06:07:02;;;;;;;16.77;12.90;;;17.40;99.90;;;;;;5064365;28;20044;-68
2022/09/06 06:09:27;;;;;;;19.40;12.75;;;17.30;99.90;;;;;;5078351;28;20048;-67
2022/09/06 06:11:53;;;;;;;17.35;13.38;;;17.30;99.90;;;;;;5065073;28;20032;-68
2022/09/06 06:14:19;;;;;;;15.52;13.68;;;17.30;99.90;;;;;;5066057;28;20033;-68
2022/09/06 06:16:44;;;;;;;14.52;13.02;;;17.30;99.90;;;;;;5048931;28;20448;-68
2022/09/06 06:19:10;;;;;;;14.07;12.27;;;17.30;99.90;;;;;;5064082;28;20496;-69
2022/09/06 06:21:37;;;;;;;15.15;13.50;;;17.30;99.90;;;;;;5061092;28;20049;-66
2022/09/06 06:24:04;;;;;;;18.20;13.23;;;17.30;99.90;;;;;;5065716;28;20460;-68
2022/09/06 06:26:33;;;;;;;17.00;14.30;;;17.20;99.90;;;;;;5062417;28;20042;-68
2022/09/06 06:29:01;;;;;;;16.52;13.27;;;17.20;99.90;;;;;;5063289;28;20126;-68
2022/09/06 06:31:31;;;;;;;18.38;13.80;;;17.20;99.90;;;;;;5061567;28;20041;-67
2022/09/06 06:33:57;;;;;;;14.95;13.25;;;17.20;99.90;;;;;;5062741;28;20472;-68
2022/09/06 06:36:25;;;;;;;18.33;14.52;;;17.20;99.90;;;;;;5065522;28;20752;-68
2022/09/06 06:38:53;;;;;;;18.75;13.70;;;17.30;99.90;;;;;;5060595;28;20044;-68
2022/09/06 06:41:22;;;;;;;14.68;13.13;;;17.20;99.90;;;;;;5047246;28;20129;-67
2022/09/06 06:43:55;;;;;;;15.73;13.35;;;17.30;99.90;;;;;;5064757;28;20033;-68
2022/09/06 06:46:22;;;;;;;;;;;17.30;99.90;;;;;;5079728;28;20040;-67
2022/09/06 06:48:47;;;;;;;17.00;13.63;;;17.40;99.90;;;;;;5064172;28;19928;-68
2022/09/06 06:51:16;;;;;;;16.77;14.07;;;17.40;99.90;;;;;;5057673;28;20036;-67
2022/09/06 06:53:43;;;;;;;16.92;13.63;;;17.40;99.90;;;;;;5064087;28;20048;-68
2022/09/06 06:56:21;;;;;;;16.88;14.70;;;17.50;99.90;;;;;;5064332;28;20543;-68
2022/09/06 06:58:49;;;;;;;19.80;15.35;;;17.50;99.90;;;;;;5052234;28;20032;-68
2022/09/06 07:01:16;;;;;;;21.33;14.23;;;17.60;99.90;;;;;;5062669;28;20040;-65
2022/09/06 07:03:42;;;;;;;16.95;14.63;;;17.60;99.90;;;;;;5044086;28;20127;-68
2022/09/06 07:06:08;;;;;;;16.50;14.45;;;17.70;99.90;;;;;;5071939;28;20036;-68
2022/09/06 07:08:36;;;;;;;17.58;15.70;;;17.80;99.90;;;;;;5075018;28;20125;-67
2022/09/06 07:11:02;;;;;;;17.40;14.88;;;17.80;99.90;;;;;;5076722;28;20086;-68
2022/09/06 07:13:29;;;;;;;18.02;16.13;;;17.90;99.90;;;;;;5074444;28;20428;-68
2022/09/06 07:16:20;;;;;;;17.80;15.63;;;17.90;99.90;;;;;;5048854;28;20051;-68
2022/09/06 07:18:49;;;;;;;20.98;15.50;;;18.00;99.90;;;;;;5052280;28;20113;-68
2022/09/06 07:21:17;;;;;;;17.48;15.13;;;18.00;99.90;;;;;;5066951;28;20037;-68
2022/09/06 07:23:43;;;;;;;19.42;15.85;;;18.10;99.90;;;;;;5070495;28;20393;-68
2022/09/06 07:26:18;;;;;;;21.27;16.45;;;18.10;99.90;;;;;;5063973;28;20051;-68
2022/09/06 07:28:45;;;;;;;23.13;15.27;;;18.20;99.90;;;;;;5070527;28;20723;-68
2022/09/06 07:31:11;;;;;;;18.13;15.20;;;18.20;99.90;;;;;;5069040;28;20488;-67
2022/09/06 07:33:38;;;;;;;21.00;15.73;;;18.20;99.90;;;;;;5049896;28;20115;-68
2022/09/06 07:36:06;;;;;;;20.88;16.10;;;18.30;99.90;;;;;;5042602;28;20053;-68
2022/09/06 07:38:32;;;;;;;19.77;16.10;;;18.40;99.90;;;;;;5059164;28;20942;-68
2022/09/06 07:41:01;;;;;;;17.63;14.82;;;18.50;99.90;;;;;;5049583;28;20477;-68
2022/09/06 07:43:28;;;;;;;20.00;15.05;;;18.50;99.90;;;;;;5043696;28;20055;-68
2022/09/06 07:46:09;;;;;;;16.67;14.88;;;18.60;99.90;;;;;;5052910;28;20075;-68
2022/09/06 07:48:37;;;;;;;17.13;15.35;;;18.70;99.90;;;;;;5074213;28;20075;-67
2022/09/06 07:51:05;;;;;;;18.02;16.15;;;18.70;99.90;;;;;;5070539;28;20025;-67
2022/09/06 07:53:31;;;;;;;19.33;17.25;;;18.70;99.90;;;;;;5064958;28;20040;-67
2022/09/06 07:55:59;;;;;;;20.52;16.80;;;18.70;99.90;;;;;;5050866;28;20044;-68
2022/09/06 07:58:25;;;;;;;22.55;17.00;;;18.60;99.90;;;;;;5066594;28;20036;-68
2022/09/06 08:00:50;;;;;;;18.38;16.30;;;18.60;99.90;;;;;;5067884;28;20452;-67
2022/09/06 08:03:16;;;;;;;18.63;16.45;;;18.60;99.90;;;;;;5051436;28;20505;-67
2022/09/06 08:05:42;;;;;;;19.63;15.77;;;18.60;99.90;;;;;;5049396;28;20055;-68
2022/09/06 08:08:08;;;;;;;19.45;16.38;;;18.70;99.90;;;;;;5072731;28;20076;-68
2022/09/06 08:10:33;;;;;;;19.13;15.93;;;18.80;99.90;;;;;;5068797;28;20063;-67
2022/09/06 08:12:59;;;;;;;19.40;15.48;;;19.00;99.90;;;;;;5052395;28;20659;-67
2022/09/06 08:15:28;;;;;;;21.02;15.82;;;19.20;99.90;;;;;;5068727;28;20123;-67
2022/09/06 08:17:54;;;;;;;17.40;14.88;;;19.40;99.90;;;;;;5067523;28;20591;-67
2022/09/06 08:20:20;;;;;;;18.48;16.35;;;19.60;99.90;;;;;;5066507;28;20508;-68
2022/09/06 08:22:45;;;;;;;17.50;15.63;;;19.80;99.90;;;;;;5067098;28;20573;-67
2022/09/06 08:25:11;;;;;;;16.63;14.07;;;20.10;99.90;;;;;;5070115;28;20051;-67
2022/09/06 08:27:37;;;;;;;17.17;14.93;;;20.10;99.90;;;;;;5071353;28;20041;-68
2022/09/06 08:30:04;;;;;;;18.00;14.48;;;20.10;99.90;;;;;;5070433;28;20159;-67
2022/09/06 08:32:33;;;;;;;16.88;15.07;;;20.10;99.90;;;;;;5067222;28;20064;-67
2022/09/06 08:34:58;;;;;;;15.90;13.90;;;20.20;99.90;;;;;;5068609;28;20520;-68
2022/09/06 08:37:24;;;;;;;18.50;15.27;;;20.30;99.90;;;;;;5069451;28;20821;-67
2022/09/06 08:39:50;;;;;;;16.70;14.55;;;20.50;99.90;;;;;;5070082;28;20142;-67
2022/09/06 08:42:16;;;;;;;19.33;13.88;;;20.70;99.90;;;;;;5048150;28;20036;-67
2022/09/06 08:44:47;;;;;;;17.85;14.25;;;20.80;99.90;;;;;;5041249;28;20051;-66
2022/09/06 08:47:15;;;;;;;15.20;13.68;;;20.80;99.90;;;;;;5063473;28;20052;-68
2022/09/06 08:49:46;;;;;;;14.73;13.10;;;20.90;99.90;;;;;;5068943;28;20113;-67
2022/09/06 08:52:34;;;;;;;17.48;14.52;;;21.00;99.90;;;;;;5068191;28;20040;-67
2022/09/06 08:55:15;;;;;;;18.95;14.32;;;21.20;99.90;;;;;;5064036;28;20048;-66
2022/09/06 08:57:50;;;;;;;16.98;14.88;;;21.40;99.90;;;;;;5069519;28;20045;-67
2022/09/06 09:00:17;;;;;;;16.48;13.60;;;21.50;99.90;;;;;;5071291;28;20032;-67
2022/09/06 09:02:52;;;;;;;16.70;14.23;;;21.70;99.90;;;;;;5070477;28;20086;-67
2022/09/06 09:05:20;;;;;;;19.38;13.80;;;21.80;99.90;;;;;;5090139;28;20056;-66
2022/09/06 09:07:55;;;;;;;15.63;14.02;;;22.10;99.90;;;;;;5069856;28;20277;-67
2022/09/06 09:10:39;;;;;;;16.33;12.40;;;22.20;99.90;;;;;;5073304;28;20298;-67
2022/09/06 09:13:08;;;;;;;13.60;12.25;;;22.40;99.90;;;;;;5071642;28;20036;-67
2022/09/06 09:15:36;;;;;;;15.10;13.35;;;22.50;99.90;;;;;;5072988;28;20716;-67
2022/09/06 09:18:02;;;;;;;14.40;12.68;;;22.50;99.90;;;;;;5054105;28;20045;-67
2022/09/06 09:20:28;;;;;;;15.20;13.38;;;22.70;99.90;;;;;;5074787;28;20127;-67
2022/09/06 09:22:54;;;;;;;15.05;13.48;;;22.80;99.90;;;;;;5068305;28;20043;-66
2022/09/06 09:25:24;;;;;;;14.90;13.00;;;22.90;99.90;;;;;;5053757;28;20102;-67
2022/09/06 09:27:58;;;;;;;14.80;12.27;;;23.10;99.90;;;;;;5067297;28;20037;-66
2022/09/06 09:30:25;;;;;;;15.68;11.65;;;23.20;99.90;;;;;;5059970;28;20080;-66
2022/09/06 09:32:51;;;;;;;13.13;11.25;;;23.40;99.90;;;;;;5054594;28;20055;-66
2022/09/06 09:35:36;;;;;;;15.45;11.60;;;23.50;99.90;;;;;;5058315;28;20052;-67
2022/09/06 09:38:21;;;;;;;15.15;11.75;;;23.60;99.90;;;;;;5068583;28;20063;-67
2022/09/06 09:40:56;;;;;;;13.88;11.30;;;23.80;99.90;;;;;;5067928;28;20146;-67
2022/09/06 09:43:32;;;;;;;11.93;10.13;;;23.80;99.90;;;;;;5056735;28;20056;-67
2022/09/06 09:46:10;;;;;;;11.60;10.23;;;24.00;99.90;;;;;;5070098;28;20485;-67
2022/09/06 09:48:37;;;;;;;10.90;9.80;;;24.10;99.90;;;;;;5074982;28;20036;-67
2022/09/06 09:51:18;;;;;;;12.73;9.75;;;24.20;99.90;;;;;;5073342;28;20044;-67
2022/09/06 09:53:52;;;;;;;12.82;10.93;;;24.30;99.90;;;;;;5076707;28;20145;-67
2022/09/06 09:56:25;;;;;;;11.02;9.95;;;24.40;99.90;;;;;;5067234;28;20489;-67
2022/09/06 09:58:53;;;;;;;9.07;7.70;;;24.60;99.90;;;;;;5066912;28;20102;-67
2022/09/06 10:01:26;;;;;;;8.85;7.95;;;24.60;99.90;;;;;;5070497;28;20559;-67
2022/09/06 10:04:01;;;;;;;12.23;9.30;;;24.70;99.90;;;;;;5051115;28;20048;-67
2022/09/06 10:06:27;;;;;;;9.05;8.15;;;24.80;99.90;;;;;;5062998;28;20052;-67
2022/09/06 10:08:53;;;;;;;10.60;8.45;;;24.90;99.90;;;;;;5065309;28;20051;-67
2022/09/06 10:11:39;;;;;;;13.27;9.77;;;25.00;99.90;;;;;;5047375;28;20572;-67
2022/09/06 10:14:16;;;;;;;8.75;7.85;;;25.10;99.90;;;;;;5067362;28;20349;-66
2022/09/06 10:16:43;;;;;;;8.18;7.38;;;25.30;99.90;;;;;;5046741;28;20048;-66
2022/09/06 10:19:29;;;;;;;10.20;7.57;;;25.40;99.90;;;;;;5049108;28;20050;-67
2022/09/06 10:22:02;;;;;;;8.05;7.25;;;25.50;99.00;;;;;;5044374;28;20481;-67
2022/09/06 10:24:46;;;;;;;7.65;6.95;;;25.60;97.60;;;;;;5067302;28;20125;-68
2022/09/06 10:27:16;;;;;;;9.00;8.10;;;25.70;98.60;;;;;;5075790;28;20036;-68
2022/09/06 10:29:51;;;;;;;9.13;7.60;;;25.70;98.70;;;;;;5052949;28;20481;-67
2022/09/06 10:32:41;;;;;;;7.88;7.10;;;25.80;98.50;;;;;;5059612;28;20052;-67
2022/09/06 10:35:15;;;;;;;8.52;6.72;;;26.00;98.30;;;;;;5072121;28;20054;-68
2022/09/06 10:38:02;;;;;;;6.80;5.80;;;26.10;97.20;;;;;;5061458;28;20055;-68
2022/09/06 10:40:44;;;;;;;6.85;5.63;;;26.20;97.30;;;;;;5065802;28;20098;-67
2022/09/06 10:43:17;;;;;;;6.20;5.03;;;26.20;95.80;;;;;;5061918;28;20504;-68
2022/09/06 10:45:57;;;;;;;8.05;5.78;;;26.20;96.20;;;;;;5065464;28;20063;-68
2022/09/06 10:48:43;;;;;;;8.70;5.75;;;26.30;95.70;;;;;;5067312;28;20048;-68
2022/09/06 10:51:39;;;;;;;5.68;4.78;;;26.50;96.20;;;;;;5045658;28;20865;-66
2022/09/06 10:54:13;;;;;;;9.70;4.28;;;26.60;95.20;;;;;;5037219;28;20283;-67
2022/09/06 10:57:03;;;;;;;12.82;4.53;;;26.70;94.60;;;;;;5062158;28;20294;-68
2022/09/06 10:59:47;;;;;;;7.50;4.97;;;26.80;94.00;;;;;;5053586;28;20044;-67
2022/09/06 11:02:37;;;;;;;5.95;4.55;;;26.80;94.00;;;;;;5055627;28;20044;-67
2022/09/06 11:05:31;;;;;;;5.75;5.10;;;27.00;94.50;;;;;;5056839;28;20032;-68
2022/09/06 11:08:02;;;;;;;7.70;4.90;;;27.10;94.00;;;;;;5047934;28;20044;-68
2022/09/06 11:10:36;;;;;;;5.82;4.57;;;27.20;94.00;;;;;;5054768;28;20128;-68
2022/09/06 11:13:13;;;;;;;6.03;4.50;;;27.30;94.00;;;;;;5038209;28;20090;-67
2022/09/06 11:16:09;;;;;;;7.53;4.20;;;27.40;93.70;;;;;;5054611;28;21453;-68
2022/09/06 11:18:47;;;;;;;5.18;4.55;;;27.50;93.10;;;;;;5037767;28;20907;-67
2022/09/06 11:21:43;;;;;;;6.72;4.40;;;27.50;92.40;;;;;;5057735;28;20049;-67
2022/09/06 11:24:21;;;;;;;6.50;4.38;;;27.50;92.30;;;;;;5053938;28;20043;-67
2022/09/06 11:27:15;;;;;;;5.40;4.25;;;27.60;92.90;;;;;;5056065;28;20512;-68
2022/09/06 11:29:46;;;;;;;4.00;3.60;;;27.50;92.20;;;;;;5037583;28;20283;-68
2022/09/06 11:32:44;;;;;;;7.72;5.10;;;27.50;91.80;;;;;;5038956;28;20512;-67
2022/09/06 11:35:23;;;;;;;5.40;4.25;;;27.50;91.40;;;;;;5038966;28;20064;-68
2022/09/06 11:38:02;;;;;;;5.55;4.70;;;27.70;91.60;;;;;;5055942;28;20036;-68
2022/09/06 11:40:36;;;;;;;7.03;4.65;;;27.70;91.10;;;;;;5057927;28;20072;-67
2022/09/06 11:43:02;;;;;;;14.68;5.40;;;27.60;90.20;;;;;;5041751;28;20037;-67
2022/09/06 11:45:45;;;;;;;5.60;4.28;;;27.70;91.20;;;;;;5066949;28;20037;-68
2022/09/06 11:48:23;;;;;;;5.95;4.30;;;27.70;89.20;;;;;;5048799;28;20048;-67
2022/09/06 11:50:55;;;;;;;3.88;3.50;;;27.90;90.80;;;;;;5064672;28;20119;-68
2022/09/06 11:53:22;;;;;;;;;;;28.00;90.40;;;;;;5059369;28;20801;-67
2022/09/06 11:56:10;;;;;;;4.97;3.80;;;27.90;88.90;;;;;;5065329;28;19925;-67
2022/09/06 11:58:39;;;;;;;4.78;3.88;;;28.00;90.10;;;;;;5063394;28;20055;-68
2022/09/06 12:01:15;;;;;;;5.13;4.25;;;28.00;90.40;;;;;;5058568;28;20036;-67
2022/09/06 12:03:49;;;;;;;4.95;4.45;;;28.10;90.30;;;;;;5074097;28;20552;-68
2022/09/06 12:06:22;;;;;;;4.90;4.40;;;28.20;90.20;;;;;;5041650;28;20033;-68
2022/09/06 12:08:51;;;;;;;9.10;4.18;;;28.30;89.90;;;;;;5055561;28;20048;-68
2022/09/06 12:11:42;;;;;;;10.05;3.92;;;28.20;89.70;;;;;;5056753;28;20409;-68
2022/09/06 12:14:32;;;;;;;6.15;4.53;;;28.30;90.10;;;;;;5056646;28;20040;-67
2022/09/06 12:16:57;;;;;;;4.00;3.60;;;28.50;88.00;;;;;;5057994;28;20113;-68
2022/09/06 12:19:43;;;;;;;6.55;3.95;;;28.50;90.10;;;;;;5060494;28;20032;-68
2022/09/06 12:22:39;;;;;;;6.28;3.92;;;28.70;88.50;;;;;;5057636;28;20521;-68
2022/09/06 12:25:05;;;;;;;9.15;4.13;;;28.70;86.90;;;;;;5059467;28;20116;-68
2022/09/06 12:27:38;;;;;;;6.57;3.50;;;28.70;88.50;;;;;;5059440;28;20501;-68
2022/09/06 12:30:10;;;;;;;4.65;3.47;;;28.80;89.00;;;;;;5039411;28;20044;-68
2022/09/06 12:32:41;;;;;;;4.35;3.95;;;28.90;87.60;;;;;;5064065;28;20100;-68
2022/09/06 12:35:33;;;;;;;4.45;3.65;;;28.80;87.30;;;;;;5081177;28;20119;-68
2022/09/06 12:38:02;;;;;;;7.78;4.30;;;28.80;87.00;;;;;;5064717;28;20045;-68
2022/09/06 12:40:37;;;;;;;6.18;4.05;;;28.70;87.60;;;;;;5067095;28;20051;-68
2022/09/06 12:43:04;;;;;;;6.47;4.55;;;28.70;87.20;;;;;;5067087;28;20033;-68
2022/09/06 12:45:30;;;;;;;5.15;4.07;;;28.70;86.60;;;;;;5069029;28;20064;-68
2022/09/06 12:48:05;;;;;;;4.63;4.15;;;28.70;86.70;;;;;;5050816;28;20044;-69
2022/09/06 12:50:31;;;;;;;5.00;4.50;;;28.70;87.20;;;;;;5070979;28;20066;-69
2022/09/06 12:53:01;;;;;;;6.63;4.60;;;28.80;87.50;;;;;;5067226;28;20102;-70
2022/09/06 12:55:26;;;;;;;6.68;4.60;;;28.90;87.80;;;;;;5067686;28;20056;-69
2022/09/06 12:57:57;;;;;;;15.65;4.85;;;29.00;87.20;;;;;;5048965;28;20028;-69